Airfield :
LOGIN :

Register | Disclaimer

   EN    FR    IT 

 










Legend :    VFR   Marginal VFR   IFR   Intensive IFR   Very Intensive IFR
Visi :
Ceiling :
>= 8 km
>= 3000ft
5 to 8 km
1000 to 3000 ft
1500m to 5 km
500 to 1000 ft
800 to 1500m
200 to 500 ft
< 800m
< 200 ft
Symbols :   Thunderstorms  Fog  Heavy snow  Heavy precipitations  Wind > 20 kt
SIGMETs :     Misc.  Thunderstorms  Icing  Turbulence  Mountain Waves  Volcanic Ashes






- Airport Elevation : 72 ft
- IATA code : UDE


EHVK - Volkel Airbase

CURRENT METAR :
  • 171936Z AUTO 28006KT 250V310 9999 FEW020 SCT027 BKN034 12/07 Q1008 BLU

EXPIRED METARs :
  • 171925Z AUTO 28007KT 250V320 9999 FEW021 BKN024 OVC027 12/08 Q1008 WHT
  • 171855Z AUTO 28005KT 260V320 9999 BKN021 OVC027 12/08 Q1008 WHT
  • 171837Z AUTO 28006KT 250V320 9999 BKN023 OVC030 13/08 Q1007 WHT
  • 171825Z AUTO 28007KT 260V330 9999 SCT044 BKN048 13/07 Q1007 BLU
  • 171805Z AUTO 28005KT 270V330 9999 FEW023 BKN043 13/08 Q1007 BLU
  • 171755Z AUTO 29007KT 260V330 9999 FEW027 13/08 Q1007 BLU
  • 171739Z AUTO 29008KT 250V320 9999 FEW024 SCT030 BKN038 13/08 Q1007 BLU
  • 171725Z AUTO 29009KT 240V320 9999 BKN024 BKN028 OVC034 14/08 Q1006 WHT
  • 171655Z AUTO 28010KT 270V340 9999 SCT027 BKN031 BKN039 15/08 Q1006 BLU

TAF TAF EHVK
Valid from the 17 at 17:00 until the 18 at 05:00 UTC


171616Z 1717/1805 27010KT 9999 SCT025 BKN060
BECMG 1718/1721 23005KT
TEMPO 1802/1805 26007G20KT 4500 SHRA FEW015 SCT020CB BKN025
PROB30
TEMPO 1802/1805 3000 TSRAGR SCT010 SCT017CB BKN020



MET'MAP, your aeronautical weather chart ! - Copyright ORBIFLY December 2007 - Disclaimer

ORBIFLY MET'MAP TEAM :

Programming & Development : Alexandra Zaïnal
Concept & original design : Baudouin d'Aumeries
Assistance for programming : Marc-Olivier Méhu
Technical & hardware support : Manuel Goepfert

Contact : metmap@orbifly.com




SOURCES & CREDITS :

   NOAA